createdAt,value
2023-04-30T00:02:02.045Z,8.18
2023-04-30T00:08:12.492Z,7.45
2023-04-30T00:11:13.852Z,7.35
2023-04-30T00:14:15.801Z,7.28
2023-04-30T00:17:17.214Z,7.78
2023-04-30T00:20:18.745Z,7.65
2023-04-30T00:23:20.179Z,8.02
2023-04-30T00:26:21.525Z,8.13
2023-04-30T00:29:23.002Z,8.13
2023-04-30T00:32:24.486Z,7.68
2023-04-30T00:35:25.893Z,7.85
2023-04-30T00:38:27.236Z,7.75
2023-04-30T00:41:30.062Z,7.30
2023-04-30T00:44:31.438Z,7.68
2023-04-30T00:47:32.937Z,7.88
2023-04-30T00:50:36.807Z,7.13
2023-04-30T00:53:39.963Z,6.88
2023-04-30T00:56:41.664Z,6.78
2023-04-30T00:59:43.226Z,7.60
2023-04-30T01:02:44.800Z,7.80
2023-04-30T01:05:46.207Z,6.93
2023-04-30T01:08:48.455Z,6.90
2023-04-30T01:12:04.058Z,7.63
2023-04-30T01:15:27.494Z,7.07
2023-04-30T01:18:48.953Z,7.47
2023-04-30T01:21:50.744Z,7.93
2023-04-30T01:25:16.739Z,7.22
2023-04-30T01:28:20.130Z,7.45
2023-04-30T01:31:23.993Z,8.00
2023-04-30T01:34:25.419Z,7.82
2023-04-30T01:37:41.042Z,7.90
2023-04-30T01:40:55.238Z,8.48
2023-04-30T01:44:10.037Z,7.93
2023-04-30T01:47:40.533Z,7.85
2023-04-30T01:50:47.282Z,8.25
2023-04-30T01:53:49.560Z,9.15
2023-04-30T01:57:18.167Z,7.85
2023-04-30T02:00:19.623Z,7.93
2023-04-30T02:03:21.080Z,7.97
2023-04-30T02:06:28.010Z,8.13
2023-04-30T02:09:29.464Z,8.32
2023-04-30T02:12:30.788Z,8.75
2023-04-30T02:15:32.189Z,8.68
2023-04-30T02:18:33.570Z,8.38
2023-04-30T02:21:34.937Z,8.25
2023-04-30T02:24:36.321Z,8.93
2023-04-30T02:27:38.350Z,7.90
2023-04-30T02:30:39.793Z,8.45
2023-04-30T02:33:41.167Z,9.75
2023-04-30T02:36:42.536Z,8.75
2023-04-30T02:39:43.947Z,8.25
2023-04-30T02:42:45.300Z,9.02
2023-04-30T02:45:46.632Z,9.00
2023-04-30T02:48:47.985Z,9.27
2023-04-30T02:51:49.351Z,9.60
2023-04-30T02:54:50.878Z,9.90
2023-04-30T02:57:52.238Z,9.13
2023-04-30T03:00:53.667Z,9.70
2023-04-30T03:03:55.323Z,9.70
2023-04-30T03:06:56.665Z,9.45
2023-04-30T03:09:58.014Z,9.88
2023-04-30T03:12:59.363Z,9.40
2023-04-30T03:16:01.873Z,10.05
2023-04-30T03:19:03.309Z,10.02
2023-04-30T03:22:04.676Z,10.35
2023-04-30T03:25:06.568Z,10.48
2023-04-30T03:28:07.927Z,9.73
2023-04-30T03:31:09.335Z,9.23
2023-04-30T03:34:11.379Z,9.77
2023-04-30T03:37:12.731Z,9.38
2023-04-30T03:40:14.160Z,9.30
2023-04-30T03:43:15.517Z,9.38
2023-04-30T03:46:16.890Z,10.65
2023-04-30T03:49:18.305Z,8.80
2023-04-30T03:52:19.663Z,10.18
2023-04-30T03:55:21.012Z,10.27
2023-04-30T03:58:22.649Z,8.65
2023-04-30T04:01:24.040Z,9.43
2023-04-30T04:04:25.503Z,10.27
2023-04-30T04:07:26.926Z,10.38
2023-04-30T04:10:28.595Z,10.40
2023-04-30T04:13:29.933Z,10.32
2023-04-30T04:16:31.377Z,10.07
2023-04-30T04:19:32.852Z,9.88
2023-04-30T04:22:34.226Z,9.57
2023-04-30T04:25:35.567Z,9.93
2023-04-30T04:28:38.038Z,10.60
2023-04-30T04:31:41.562Z,10.07
2023-04-30T04:34:43.645Z,11.10
2023-04-30T04:37:45.517Z,11.90
2023-04-30T04:40:53.790Z,11.02
2023-04-30T04:43:56.575Z,11.02
2023-04-30T04:46:58.629Z,10.43
2023-04-30T04:50:00.663Z,10.95
2023-04-30T04:53:02.044Z,10.85
2023-04-30T04:56:03.524Z,10.77
2023-04-30T04:59:04.915Z,9.75
2023-04-30T05:02:06.362Z,10.27
2023-04-30T05:05:08.136Z,10.35
2023-04-30T05:08:09.655Z,10.20
2023-04-30T05:11:13.097Z,10.25
2023-04-30T05:14:16.283Z,10.13
2023-04-30T05:17:17.685Z,10.25
2023-04-30T05:20:19.030Z,10.60
2023-04-30T05:23:20.443Z,10.43
2023-04-30T05:26:23.570Z,10.45
2023-04-30T05:29:25.011Z,11.07
2023-04-30T05:32:27.739Z,10.05
2023-04-30T05:35:30.341Z,10.75
2023-04-30T05:38:31.699Z,11.52
2023-04-30T05:41:33.061Z,9.82
2023-04-30T05:44:34.423Z,10.02
2023-04-30T05:47:35.772Z,9.50
2023-04-30T05:50:37.280Z,9.55
2023-04-30T05:53:38.625Z,10.68
2023-04-30T05:56:39.982Z,10.48
2023-04-30T05:59:41.363Z,10.98
2023-04-30T06:02:42.953Z,9.70
2023-04-30T06:05:45.150Z,10.40
2023-04-30T06:08:46.596Z,10.65
2023-04-30T06:11:50.367Z,10.10
2023-04-30T06:14:52.600Z,9.30
2023-04-30T06:17:54.232Z,10.60
2023-04-30T06:20:55.639Z,9.57
2023-04-30T06:23:56.986Z,10.00
2023-04-30T06:26:58.349Z,10.10
2023-04-30T06:30:01.008Z,9.60
2023-04-30T06:33:02.703Z,9.90
2023-04-30T06:36:04.375Z,8.93
2023-04-30T06:39:05.715Z,10.00
2023-04-30T06:42:07.051Z,9.73
2023-04-30T06:45:09.047Z,9.13
2023-04-30T06:48:10.422Z,9.40
2023-04-30T06:51:11.821Z,8.55
2023-04-30T06:54:14.294Z,9.13
2023-04-30T06:57:15.652Z,8.98
2023-04-30T07:00:17.181Z,8.73
2023-04-30T07:03:18.691Z,8.80
2023-04-30T07:06:20.845Z,9.00
2023-04-30T07:09:22.254Z,8.98
2023-04-30T07:12:23.654Z,8.20
2023-04-30T07:15:25.095Z,8.40
2023-04-30T07:18:26.458Z,7.03
2023-04-30T07:21:28.020Z,7.15
2023-04-30T07:24:29.482Z,6.32
2023-04-30T07:27:30.833Z,6.10
2023-04-30T07:30:32.209Z,5.97
2023-04-30T07:33:33.579Z,5.88
2023-04-30T07:36:34.953Z,5.70
2023-04-30T07:39:37.316Z,6.20
2023-04-30T07:42:42.274Z,5.70
2023-04-30T07:45:44.466Z,6.15
2023-04-30T07:48:45.976Z,6.40
2023-04-30T07:51:47.547Z,5.80
2023-04-30T07:54:48.934Z,5.47
2023-04-30T07:57:50.385Z,4.85
2023-04-30T08:00:51.782Z,5.50
2023-04-30T08:03:53.267Z,5.10
2023-04-30T08:06:54.638Z,4.60
2023-04-30T08:09:56.252Z,4.28
2023-04-30T08:12:57.837Z,4.45
2023-04-30T08:15:59.205Z,3.67
2023-04-30T08:19:00.677Z,4.78
2023-04-30T08:22:02.125Z,4.20
2023-04-30T08:25:03.634Z,4.00
2023-04-30T08:28:06.597Z,4.13
2023-04-30T08:31:08.380Z,3.38
2023-04-30T08:34:09.721Z,3.70
2023-04-30T08:37:11.117Z,4.07
2023-04-30T08:40:13.939Z,4.30
2023-04-30T08:43:15.482Z,3.05
2023-04-30T08:46:18.043Z,2.65
2023-04-30T08:49:19.991Z,2.45
2023-04-30T08:52:22.148Z,3.10
2023-04-30T08:55:23.595Z,3.70
2023-04-30T08:58:25.022Z,3.08
2023-04-30T09:01:27.064Z,3.47
2023-04-30T09:04:29.112Z,2.88
2023-04-30T09:07:33.606Z,2.70
2023-04-30T09:10:35.784Z,2.60
2023-04-30T09:13:41.073Z,3.10
2023-04-30T09:16:50.644Z,2.78
2023-04-30T09:19:52.626Z,2.38
2023-04-30T09:23:10.571Z,2.35
2023-04-30T09:26:21.722Z,2.92
2023-04-30T09:29:36.798Z,2.75
2023-04-30T09:32:54.996Z,2.38
2023-04-30T09:35:56.404Z,2.20
2023-04-30T09:39:18.466Z,2.28
2023-04-30T09:42:20.687Z,2.30
2023-04-30T09:45:23.173Z,2.72
2023-04-30T09:48:27.193Z,1.92
2023-04-30T09:51:29.151Z,2.10
2023-04-30T09:54:32.324Z,2.35
2023-04-30T09:57:36.242Z,2.50
2023-04-30T10:00:39.532Z,2.22
2023-04-30T10:03:43.024Z,2.30
2023-04-30T10:06:44.888Z,2.17
2023-04-30T10:09:59.431Z,2.15
2023-04-30T10:13:07.583Z,2.25
2023-04-30T10:16:18.686Z,2.20
2023-04-30T10:19:23.856Z,2.63
2023-04-30T10:22:25.870Z,2.38
2023-04-30T10:25:28.738Z,1.85
2023-04-30T10:28:31.154Z,2.00
2023-04-30T10:31:33.071Z,2.17
2023-04-30T10:34:45.367Z,1.90
2023-04-30T10:38:22.557Z,1.88
2023-04-30T10:41:26.315Z,2.13
2023-04-30T10:44:27.670Z,2.30
2023-04-30T10:47:30.828Z,1.95
2023-04-30T10:50:32.590Z,2.50
2023-04-30T10:53:36.995Z,1.90
2023-04-30T10:56:38.382Z,2.00
2023-04-30T11:00:09.485Z,1.90
2023-04-30T11:03:10.884Z,1.75
2023-04-30T11:06:13.766Z,1.42
2023-04-30T11:09:15.199Z,1.80
2023-04-30T11:12:28.577Z,1.60
2023-04-30T11:15:45.837Z,1.55
2023-04-30T11:18:47.631Z,1.27
2023-04-30T11:22:03.930Z,1.25
2023-04-30T11:25:09.302Z,1.45
2023-04-30T11:28:23.819Z,1.63
2023-04-30T11:31:33.570Z,1.30
2023-04-30T11:34:35.030Z,1.35
2023-04-30T11:37:39.454Z,1.23
2023-04-30T11:40:41.680Z,1.30
2023-04-30T11:43:43.038Z,1.25
2023-04-30T11:46:44.441Z,1.20
2023-04-30T11:49:45.850Z,1.23
2023-04-30T11:52:52.561Z,0.68
2023-04-30T11:55:55.596Z,0.80
2023-04-30T11:58:57.086Z,0.80
2023-04-30T12:01:58.671Z,0.90
2023-04-30T12:05:00.127Z,0.70
2023-04-30T12:08:04.638Z,0.85
2023-04-30T12:11:07.773Z,1.08
2023-04-30T12:14:11.084Z,1.33
2023-04-30T12:17:12.508Z,0.90
2023-04-30T12:20:15.106Z,0.80
2023-04-30T12:23:16.727Z,1.20
2023-04-30T12:26:18.178Z,1.10
2023-04-30T12:29:19.637Z,1.25
2023-04-30T12:32:22.504Z,1.08
2023-04-30T12:35:24.879Z,1.05
2023-04-30T12:38:26.275Z,0.90
2023-04-30T12:41:29.822Z,0.82
2023-04-30T12:44:31.194Z,0.90
2023-04-30T12:47:32.696Z,1.05
2023-04-30T12:50:34.294Z,1.08
2023-04-30T12:53:46.200Z,0.98
2023-04-30T12:56:58.785Z,1.25
2023-04-30T13:00:00.363Z,1.00
2023-04-30T13:03:01.766Z,1.30
2023-04-30T13:06:04.613Z,1.00
2023-04-30T13:09:06.120Z,1.15
2023-04-30T13:12:07.818Z,1.65
2023-04-30T13:15:09.692Z,1.13
2023-04-30T13:18:11.960Z,0.90
2023-04-30T13:21:13.596Z,1.10
2023-04-30T13:24:15.036Z,1.00
2023-04-30T13:27:16.397Z,1.00
2023-04-30T13:30:17.818Z,1.15
2023-04-30T13:33:19.202Z,0.93
2023-04-30T13:36:21.490Z,0.85
2023-04-30T13:39:23.061Z,1.25
2023-04-30T13:42:26.661Z,0.95
2023-04-30T13:45:29.020Z,0.90
2023-04-30T13:48:30.416Z,0.50
2023-04-30T13:51:32.303Z,0.70
2023-04-30T13:54:33.669Z,0.98
2023-04-30T13:57:35.121Z,0.90
2023-04-30T14:00:36.590Z,0.80
2023-04-30T14:03:38.116Z,1.38
2023-04-30T14:06:40.521Z,1.00
2023-04-30T14:09:41.917Z,0.88
2023-04-30T14:12:43.417Z,0.98
2023-04-30T14:15:44.791Z,0.70
2023-04-30T14:18:46.552Z,0.80
2023-04-30T14:21:47.963Z,0.82
2023-04-30T14:24:49.335Z,0.50
2023-04-30T14:27:50.844Z,1.08
2023-04-30T14:30:52.215Z,0.47
2023-04-30T14:33:53.600Z,0.70
2023-04-30T14:36:55.089Z,0.63
2023-04-30T14:39:56.872Z,0.60
2023-04-30T14:42:58.484Z,0.47
2023-04-30T14:45:59.919Z,0.55
2023-04-30T14:49:01.450Z,0.60
2023-04-30T14:52:02.795Z,0.40
2023-04-30T14:55:04.865Z,1.30
2023-04-30T14:58:06.243Z,0.70
2023-04-30T15:01:07.600Z,0.50
2023-04-30T15:04:09.459Z,0.70
2023-04-30T15:07:11.014Z,0.70
2023-04-30T15:10:12.377Z,0.50
2023-04-30T15:13:14.183Z,0.40
2023-04-30T15:16:17.022Z,0.50
2023-04-30T15:19:18.436Z,0.60
2023-04-30T15:22:20.935Z,0.70
2023-04-30T15:25:23.946Z,0.75
2023-04-30T15:28:25.552Z,0.47
2023-04-30T15:31:27.203Z,0.60
2023-04-30T15:34:29.520Z,0.63
2023-04-30T15:37:30.900Z,0.70
2023-04-30T15:40:32.296Z,0.70
2023-04-30T15:43:33.706Z,0.60
2023-04-30T15:46:35.129Z,0.50
2023-04-30T15:49:36.486Z,1.00
2023-04-30T15:52:39.928Z,1.30
2023-04-30T15:55:42.511Z,0.85
2023-04-30T15:58:43.901Z,0.90
2023-04-30T16:01:45.489Z,0.90
2023-04-30T16:04:46.999Z,0.90
2023-04-30T16:07:48.541Z,0.85
2023-04-30T16:10:49.992Z,0.68
2023-04-30T16:13:51.946Z,0.88
2023-04-30T16:16:53.316Z,0.90
2023-04-30T16:19:55.065Z,1.45
2023-04-30T16:22:56.799Z,0.60
2023-04-30T16:25:58.367Z,0.80
2023-04-30T16:28:59.715Z,0.70
2023-04-30T16:32:01.613Z,1.00
2023-04-30T16:35:03.211Z,0.90
2023-04-30T16:38:04.621Z,0.85
2023-04-30T16:41:06.626Z,0.98
2023-04-30T16:44:09.684Z,1.05
2023-04-30T16:47:11.041Z,1.20
2023-04-30T16:50:12.397Z,1.10
2023-04-30T16:53:13.772Z,0.98
2023-04-30T16:56:15.185Z,0.88
2023-04-30T16:59:16.512Z,1.08
2023-04-30T17:02:18.056Z,1.33
2023-04-30T17:05:20.127Z,1.40
2023-04-30T17:08:21.512Z,0.90
2023-04-30T17:11:24.315Z,1.45
2023-04-30T17:14:26.669Z,5.90
2023-04-30T17:17:28.043Z,14.73
2023-04-30T17:20:29.418Z,8.30
2023-04-30T17:23:30.758Z,3.53
2023-04-30T17:26:32.190Z,4.10
2023-04-30T17:29:33.527Z,2.40
2023-04-30T17:32:35.584Z,7.60
2023-04-30T17:35:37.096Z,9.27
2023-04-30T17:38:38.468Z,20.30
2023-04-30T17:41:39.860Z,62.25
2023-04-30T17:44:41.557Z,42.22
2023-04-30T17:47:42.970Z,8.88
2023-04-30T17:50:44.807Z,2.80
2023-04-30T17:53:46.174Z,1.85
2023-04-30T17:56:47.531Z,1.50
2023-04-30T17:59:49.117Z,1.17
2023-04-30T18:02:50.988Z,1.60
2023-04-30T18:06:04.902Z,1.15
2023-04-30T18:09:06.346Z,1.38
2023-04-30T18:12:07.706Z,2.22
2023-04-30T18:15:09.351Z,1.65
2023-04-30T18:18:10.844Z,1.48
2023-04-30T18:21:12.316Z,1.50
2023-04-30T18:24:13.652Z,1.30
2023-04-30T18:27:15.073Z,1.25
2023-04-30T18:30:16.461Z,1.20
2023-04-30T18:33:17.810Z,0.90
2023-04-30T18:36:19.360Z,1.20
2023-04-30T18:39:22.195Z,1.30
2023-04-30T18:42:24.660Z,1.38
2023-04-30T18:45:26.280Z,1.55
2023-04-30T18:48:27.629Z,1.50
2023-04-30T18:51:28.972Z,1.35
2023-04-30T18:54:30.377Z,2.05
2023-04-30T18:57:32.682Z,2.00
2023-04-30T19:00:34.088Z,1.85
2023-04-30T19:03:35.594Z,1.60
2023-04-30T19:06:37.518Z,1.50
2023-04-30T19:09:39.675Z,1.52
2023-04-30T19:12:43.264Z,1.73
2023-04-30T19:15:45.999Z,2.10
2023-04-30T19:18:47.326Z,2.33
2023-04-30T19:21:48.705Z,2.10
2023-04-30T19:24:50.062Z,2.10
2023-04-30T19:27:51.770Z,1.90
2023-04-30T19:30:54.487Z,1.90
2023-04-30T19:34:00.674Z,2.00
2023-04-30T19:37:02.715Z,1.67
2023-04-30T19:40:10.420Z,2.13
2023-04-30T19:43:12.235Z,2.60
2023-04-30T19:46:13.729Z,2.03
2023-04-30T19:49:15.946Z,2.00
2023-04-30T19:52:17.318Z,2.42
2023-04-30T19:55:18.794Z,3.25
2023-04-30T20:01:21.803Z,2.65
2023-04-30T20:04:23.229Z,2.13
2023-04-30T20:07:24.748Z,2.05
2023-04-30T20:10:26.070Z,2.70
2023-04-30T20:13:27.925Z,2.78
2023-04-30T20:16:29.384Z,2.33
2023-04-30T20:19:31.133Z,2.58
2023-04-30T20:22:32.578Z,1.80
2023-04-30T20:25:33.974Z,2.17
2023-04-30T20:28:35.800Z,1.95
2023-04-30T20:31:37.706Z,2.60
2023-04-30T20:34:39.161Z,2.58
2023-04-30T20:37:40.530Z,2.50
2023-04-30T20:40:42.130Z,3.03
2023-04-30T20:43:43.647Z,3.83
2023-04-30T20:46:45.440Z,4.35
2023-04-30T20:49:46.878Z,3.95
2023-04-30T20:52:48.312Z,3.60
2023-04-30T20:55:49.669Z,3.83
2023-04-30T20:58:51.017Z,3.58
2023-04-30T21:01:52.382Z,3.60
2023-04-30T21:04:53.772Z,3.33
2023-04-30T21:07:55.220Z,3.25
2023-04-30T21:10:56.563Z,2.92
2023-04-30T21:13:57.950Z,2.65
2023-04-30T21:16:59.629Z,2.90
2023-04-30T21:20:01.170Z,3.00
2023-04-30T21:23:03.215Z,2.78
2023-04-30T21:26:04.608Z,2.97
2023-04-30T21:29:06.160Z,2.67
2023-04-30T21:32:07.596Z,2.65
2023-04-30T21:35:08.960Z,2.72
2023-04-30T21:38:13.702Z,2.75
2023-04-30T21:41:16.450Z,2.80
2023-04-30T21:44:18.023Z,3.08
2023-04-30T21:47:19.396Z,2.63
2023-04-30T21:50:20.748Z,3.08
2023-04-30T21:53:22.099Z,2.90
2023-04-30T21:56:23.451Z,3.15
2023-04-30T21:59:24.798Z,3.08
2023-04-30T22:02:26.653Z,3.35
2023-04-30T22:05:28.134Z,3.35
2023-04-30T22:08:29.502Z,3.08
2023-04-30T22:11:31.145Z,2.97
2023-04-30T22:14:32.495Z,3.47
2023-04-30T22:17:34.296Z,3.22
2023-04-30T22:20:36.241Z,2.92
2023-04-30T22:23:37.612Z,3.15
2023-04-30T22:26:38.961Z,3.45
2023-04-30T22:29:40.399Z,4.50
2023-04-30T22:32:42.282Z,4.30
2023-04-30T22:35:43.633Z,3.85
2023-04-30T22:38:44.973Z,3.90
2023-04-30T22:41:46.483Z,4.20
2023-04-30T22:44:48.781Z,3.85
2023-04-30T22:47:50.327Z,3.70
2023-04-30T22:50:52.584Z,3.58
2023-04-30T22:53:56.257Z,3.33
2023-04-30T22:56:58.342Z,3.13
2023-04-30T22:59:59.744Z,3.40
2023-04-30T23:03:01.172Z,3.67
2023-04-30T23:06:02.781Z,3.58
2023-04-30T23:09:04.179Z,3.30
2023-04-30T23:12:05.615Z,3.55
2023-04-30T23:15:07.574Z,3.50
2023-04-30T23:18:08.971Z,3.22
2023-04-30T23:21:10.371Z,2.90
2023-04-30T23:24:11.788Z,3.03
2023-04-30T23:27:13.171Z,3.30
2023-04-30T23:30:14.575Z,3.53
2023-04-30T23:33:16.556Z,3.40
2023-04-30T23:36:18.302Z,4.30
2023-04-30T23:39:19.802Z,3.60
2023-04-30T23:42:21.185Z,3.53
2023-04-30T23:45:22.529Z,3.75
2023-04-30T23:48:24.184Z,3.72
2023-04-30T23:51:25.610Z,3.75
2023-04-30T23:54:27.186Z,3.35
2023-04-30T23:57:28.615Z,3.55
